Time;durP1;ratioP1;P1;durP2;ratioP2;P2;SDS_P1;SDS_P2;PMS_P1;PMS_P2;Temp;Humidity;BMP_temperature;BMP_pressure;BME280_temperature;BME280_humidity;BME280_pressure;Samples;Min_cycle;Max_cycle;Signal;HPM_P1;HPM_P2
2021/09/21 00:00:09;;;;;;;19.73;12.37;;;;;;;;;;781421;178;919702;-70
2021/09/21 00:02:35;;;;;;;15.17;11.10;;;;;;;;;;782328;178;921061;-70
2021/09/21 00:05:01;;;;;;;14.02;10.13;;;;;;;;;;758870;182;915764;-70
2021/09/21 00:07:26;;;;;;;16.07;10.50;;;;;;;;;;775449;180;915198;-69
2021/09/21 00:09:52;;;;;;;12.50;9.33;;;;;;;;;;784798;173;919360;-70
2021/09/21 00:12:18;;;;;;;17.67;11.40;;;;;;;;;;791064;175;919487;-69
2021/09/21 00:14:44;;;;;;;17.13;10.80;;;;;;;;;;785166;178;917805;-69
2021/09/21 00:17:10;;;;;;;21.03;10.63;;;;;;;;;;782500;178;929883;-70
2021/09/21 00:19:36;;;;;;;15.83;10.80;;;;;;;;;;770882;179;918979;-70
2021/09/21 00:22:02;;;;;;;14.53;10.90;;;;;;;;;;766768;180;918361;-69
2021/09/21 00:24:27;;;;;;;12.10;8.50;;;;;;;;;;781257;178;919256;-69
2021/09/21 00:26:53;;;;;;;15.03;10.10;;;;;;;;;;770410;181;918631;-69
2021/09/21 00:29:19;;;;;;;11.63;9.57;;;;;;;;;;762674;182;918431;-69
2021/09/21 00:31:49;;;;;;;13.23;8.20;;;;;;;;;;776260;177;918988;-70
2021/09/21 00:34:13;;;;;;;19.23;10.63;;;;;;;;;;773455;179;1018919;-68
2021/09/21 00:36:37;;;;;;;14.60;9.77;;;;;;;;;;766613;179;919226;-69
2021/09/21 00:39:03;;;;;;;15.77;10.20;;;;;;;;;;775074;179;918854;-69
2021/09/21 00:41:28;;;;;;;13.63;9.43;;;;;;;;;;768026;180;918946;-69
2021/09/21 00:43:54;;;;;;;15.63;10.50;;;;;;;;;;769502;179;917441;-69
2021/09/21 00:46:20;;;;;;;15.07;10.53;;;;;;;;;;767059;180;1122699;-69
2021/09/21 00:48:46;;;;;;;18.13;10.53;;;;;;;;;;775062;180;918146;-69
2021/09/21 00:51:12;;;;;;;15.20;9.33;;;;;;;;;;772189;180;918787;-69
2021/09/21 00:53:38;;;;;;;15.57;9.60;;;;;;;;;;768864;180;918785;-69
2021/09/21 00:56:04;;;;;;;15.37;9.67;;;;;;;;;;784105;175;918951;-69
2021/09/21 00:58:30;;;;;;;14.20;9.13;;;;;;;;;;774117;179;918769;-68
2021/09/21 01:00:55;;;;;;;13.33;9.23;;;;;;;;;;772733;179;919094;-68
2021/09/21 01:03:21;;;;;;;11.97;8.77;;;;;;;;;;775664;179;918568;-68
2021/09/21 01:05:47;;;;;;;12.18;8.77;;;;;;;;;;768930;179;919147;-68
2021/09/21 01:08:13;;;;;;;15.83;8.27;;;;;;;;;;771578;180;917436;-68
2021/09/21 01:10:39;;;;;;;14.35;8.55;;;;;;;;;;777215;180;919527;-68
2021/09/21 01:13:05;;;;;;;12.70;8.30;;;;;;;;;;781708;174;918479;-68
2021/09/21 01:15:30;;;;;;;16.47;9.20;;;;;;;;;;780750;177;918605;-68
2021/09/21 01:17:57;;;;;;;12.30;8.43;;;;;;;;;;762893;180;918763;-68
2021/09/21 01:20:22;;;;;;;13.20;8.37;;;;;;;;;;773862;178;925125;-68
2021/09/21 01:22:48;;;;;;;11.80;8.60;;;;;;;;;;785957;176;1110631;-68
2021/09/21 01:25:14;;;;;;;14.83;9.87;;;;;;;;;;775400;180;918195;-69
2021/09/21 01:27:40;;;;;;;10.83;7.50;;;;;;;;;;774406;179;919054;-68
2021/09/21 01:30:06;;;;;;;13.80;8.70;;;;;;;;;;770618;179;919684;-68
2021/09/21 01:32:32;;;;;;;14.60;8.52;;;;;;;;;;770993;180;919154;-68
2021/09/21 01:35:00;;;;;;;11.37;6.40;;;;;;;;;;766419;180;921089;-67
2021/09/21 01:37:24;;;;;;;15.80;7.87;;;;;;;;;;766625;179;925703;-67
2021/09/21 01:39:49;;;;;;;11.33;6.13;;;;;;;;;;776388;180;919229;-68
2021/09/21 01:42:15;;;;;;;9.30;6.57;;;;;;;;;;767807;180;919762;-67
2021/09/21 01:44:41;;;;;;;10.20;6.45;;;;;;;;;;775008;180;918683;-67
2021/09/21 01:47:07;;;;;;;9.23;6.63;;;;;;;;;;767759;180;918927;-67
2021/09/21 01:49:44;;;;;;;11.03;6.90;;;;;;;;;;766069;179;919306;-67
2021/09/21 01:59:56;;;;;;;10.10;6.87;;;;;;;;;;785340;174;919508;-67
2021/09/21 02:02:22;;;;;;;12.40;8.33;;;;;;;;;;771338;177;918281;-67
2021/09/21 02:04:48;;;;;;;11.73;8.30;;;;;;;;;;779659;178;918616;-67
2021/09/21 02:07:13;;;;;;;13.10;7.43;;;;;;;;;;768736;180;918774;-67
2021/09/21 02:09:39;;;;;;;10.40;7.20;;;;;;;;;;771529;180;919345;-67
2021/09/21 02:12:05;;;;;;;18.33;7.40;;;;;;;;;;767656;180;918610;-67
2021/09/21 02:14:31;;;;;;;10.23;7.23;;;;;;;;;;771902;179;919312;-67
2021/09/21 02:16:57;;;;;;;11.75;7.40;;;;;;;;;;775050;180;918755;-66
2021/09/21 02:19:23;;;;;;;10.23;6.90;;;;;;;;;;781446;175;918920;-67
2021/09/21 02:21:49;;;;;;;10.57;6.97;;;;;;;;;;778722;177;919334;-66
2021/09/21 02:24:19;;;;;;;10.43;7.17;;;;;;;;;;771218;180;919350;-66
2021/09/21 02:26:42;;;;;;;15.07;7.70;;;;;;;;;;766515;182;914476;-66
2021/09/21 02:29:07;;;;;;;11.97;7.37;;;;;;;;;;762120;180;915855;-67
2021/09/21 02:31:33;;;;;;;15.23;8.73;;;;;;;;;;771852;178;916471;-66
2021/09/21 02:33:59;;;;;;;9.13;5.80;;;;;;;;;;787156;174;916221;-66
2021/09/21 02:36:25;;;;;;;9.07;6.60;;;;;;;;;;763732;182;924448;-66
2021/09/21 02:38:51;;;;;;;10.60;6.93;;;;;;;;;;787525;174;918768;-66
2021/09/21 02:41:17;;;;;;;8.87;6.23;;;;;;;;;;765535;180;920238;-65
2021/09/21 02:43:42;;;;;;;10.63;6.23;;;;;;;;;;770833;180;918224;-66
2021/09/21 02:46:08;;;;;;;11.80;6.00;;;;;;;;;;779303;178;919673;-66
2021/09/21 02:48:34;;;;;;;10.93;5.17;;;;;;;;;;779751;178;1021772;-66
2021/09/21 02:51:00;;;;;;;10.23;5.73;;;;;;;;;;784781;178;915509;-65
2021/09/21 02:53:26;;;;;;;8.77;5.60;;;;;;;;;;767196;180;915908;-66
2021/09/21 02:55:52;;;;;;;8.65;5.07;;;;;;;;;;767401;180;914930;-65
2021/09/21 02:58:17;;;;;;;7.53;5.20;;;;;;;;;;776002;180;918765;-65
2021/09/21 03:00:45;;;;;;;11.60;6.20;;;;;;;;;;770465;180;920026;-66
2021/09/21 03:03:09;;;;;;;7.63;5.73;;;;;;;;;;782767;177;918334;-66
2021/09/21 03:05:41;;;;;;;12.93;5.80;;;;;;;;;;781954;177;920191;-65
2021/09/21 03:08:08;;;;;;;9.60;6.73;;;;;;;;;;775387;178;918763;-65
2021/09/21 03:10:40;;;;;;;10.00;6.23;;;;;;;;;;775863;178;943871;-65
2021/09/21 03:13:16;;;;;;;10.90;5.70;;;;;;;;;;773497;179;929017;-66
2021/09/21 03:17:57;;;;;;;9.20;5.33;;;;;;;;;;767508;180;918952;-65
2021/09/21 03:20:23;;;;;;;8.13;4.97;;;;;;;;;;793004;174;919188;-67
2021/09/21 03:22:49;;;;;;;9.00;6.10;;;;;;;;;;777320;177;920945;-65
2021/09/21 03:25:15;;;;;;;8.03;4.90;;;;;;;;;;772662;180;916685;-65
2021/09/21 03:27:40;;;;;;;7.83;5.67;;;;;;;;;;769202;179;913206;-64
2021/09/21 03:30:07;;;;;;;6.20;5.10;;;;;;;;;;768219;179;922186;-64
2021/09/21 03:32:33;;;;;;;7.90;5.20;;;;;;;;;;768964;181;925580;-64
2021/09/21 03:34:59;;;;;;;9.07;5.17;;;;;;;;;;761978;180;918929;-64
2021/09/21 03:37:24;;;;;;;8.83;6.07;;;;;;;;;;762428;180;905675;-64
2021/09/21 03:39:50;;;;;;;9.20;6.10;;;;;;;;;;762392;180;915799;-64
2021/09/21 03:42:16;;;;;;;10.70;5.90;;;;;;;;;;766280;177;915656;-64
2021/09/21 03:44:43;;;;;;;8.10;5.33;;;;;;;;;;773818;179;936575;-63
2021/09/21 03:47:08;;;;;;;10.37;6.07;;;;;;;;;;782344;174;919088;-63
2021/09/21 03:49:33;;;;;;;11.00;6.70;;;;;;;;;;780959;174;918554;-63
2021/09/21 03:51:59;;;;;;;6.43;4.43;;;;;;;;;;766693;180;925313;-64
2021/09/21 03:54:25;;;;;;;10.57;5.97;;;;;;;;;;782304;176;918724;-64
2021/09/21 03:56:51;;;;;;;8.30;5.23;;;;;;;;;;775007;180;919677;-63
2021/09/21 03:59:17;;;;;;;10.23;6.07;;;;;;;;;;770001;179;919856;-64
2021/09/21 04:01:43;;;;;;;9.05;6.80;;;;;;;;;;766121;179;919146;-63
2021/09/21 04:04:08;;;;;;;17.53;7.30;;;;;;;;;;770189;180;918784;-64
2021/09/21 04:06:34;;;;;;;10.93;6.53;;;;;;;;;;770178;180;916880;-63
2021/09/21 04:09:00;;;;;;;8.83;7.10;;;;;;;;;;781670;175;918148;-65
2021/09/21 04:11:26;;;;;;;10.30;5.97;;;;;;;;;;773790;180;919285;-65
2021/09/21 04:13:52;;;;;;;9.30;7.00;;;;;;;;;;773811;179;919734;-65
2021/09/21 04:16:18;;;;;;;9.80;5.50;;;;;;;;;;774419;180;625897;-65
2021/09/21 04:18:43;;;;;;;13.77;6.80;;;;;;;;;;774133;179;632698;-65
2021/09/21 04:21:09;;;;;;;12.90;7.70;;;;;;;;;;780692;180;634078;-65
2021/09/21 04:23:38;;;;;;;8.73;6.60;;;;;;;;;;780838;177;920050;-65
2021/09/21 04:26:01;;;;;;;10.93;7.43;;;;;;;;;;759184;181;920485;-65
2021/09/21 04:28:27;;;;;;;9.43;5.70;;;;;;;;;;770270;180;917194;-65
2021/09/21 04:30:53;;;;;;;11.00;7.90;;;;;;;;;;767586;180;917883;-66
2021/09/21 04:33:19;;;;;;;11.30;8.00;;;;;;;;;;763503;181;920256;-67
2021/09/21 04:35:45;;;;;;;13.53;7.90;;;;;;;;;;768859;181;919732;-67
2021/09/21 04:38:11;;;;;;;12.83;7.87;;;;;;;;;;775059;178;918760;-67
2021/09/21 04:40:37;;;;;;;11.23;7.00;;;;;;;;;;781924;177;642239;-68
2021/09/21 04:43:02;;;;;;;15.00;7.30;;;;;;;;;;783588;177;618671;-68
2021/09/21 04:45:28;;;;;;;14.90;8.17;;;;;;;;;;788499;174;631908;-68
2021/09/21 04:47:54;;;;;;;22.37;8.53;;;;;;;;;;777063;180;641696;-68
2021/09/21 04:50:20;;;;;;;12.80;7.40;;;;;;;;;;782872;175;919604;-68
2021/09/21 04:52:46;;;;;;;13.03;8.27;;;;;;;;;;788565;178;917921;-68
2021/09/21 04:55:12;;;;;;;13.35;8.43;;;;;;;;;;774560;178;918769;-68
2021/09/21 04:57:38;;;;;;;12.32;7.45;;;;;;;;;;781744;175;1088887;-69
2021/09/21 05:00:04;;;;;;;14.90;8.30;;;;;;;;;;778886;175;919179;-67
2021/09/21 05:02:30;;;;;;;14.40;8.10;;;;;;;;;;780501;177;917999;-69
2021/09/21 05:04:56;;;;;;;14.63;8.70;;;;;;;;;;777133;178;919599;-69
2021/09/21 05:07:22;;;;;;;12.47;7.50;;;;;;;;;;777499;178;918722;-69
2021/09/21 05:09:47;;;;;;;13.47;8.60;;;;;;;;;;782628;180;919033;-68
2021/09/21 05:12:13;;;;;;;14.27;8.40;;;;;;;;;;767779;179;918797;-70
2021/09/21 05:14:39;;;;;;;17.77;8.73;;;;;;;;;;793498;175;919061;-69
2021/09/21 05:17:05;;;;;;;15.23;9.15;;;;;;;;;;780378;178;926770;-68
2021/09/21 05:19:31;;;;;;;17.00;10.07;;;;;;;;;;774516;178;919545;-69
2021/09/21 05:21:57;;;;;;;17.97;9.80;;;;;;;;;;776588;178;919158;-72
2021/09/21 05:24:23;;;;;;;15.43;8.40;;;;;;;;;;783098;180;918962;-70
2021/09/21 05:26:48;;;;;;;20.33;11.67;;;;;;;;;;763138;184;920341;-69
2021/09/21 05:29:14;;;;;;;18.80;11.30;;;;;;;;;;781842;178;917980;-71
2021/09/21 05:31:40;;;;;;;23.30;10.73;;;;;;;;;;760009;182;919701;-71
2021/09/21 05:34:06;;;;;;;20.57;11.63;;;;;;;;;;779049;179;919731;-70
2021/09/21 05:36:32;;;;;;;23.73;13.60;;;;;;;;;;775418;180;918768;-70
2021/09/21 05:38:58;;;;;;;27.97;13.03;;;;;;;;;;760436;180;928903;-69
2021/09/21 05:41:23;;;;;;;34.70;14.87;;;;;;;;;;778133;179;918476;-69
2021/09/21 05:43:49;;;;;;;34.73;16.17;;;;;;;;;;774581;180;918702;-68
2021/09/21 05:46:15;;;;;;;34.87;16.10;;;;;;;;;;764404;181;920127;-65
2021/09/21 05:48:41;;;;;;;40.05;17.10;;;;;;;;;;778449;179;919257;-64
2021/09/21 05:51:07;;;;;;;44.20;18.23;;;;;;;;;;765709;180;918637;-64
2021/09/21 05:53:33;;;;;;;40.33;18.07;;;;;;;;;;768815;180;919469;-63
2021/09/21 05:55:58;;;;;;;48.57;19.70;;;;;;;;;;773540;180;919307;-63
2021/09/21 05:58:24;;;;;;;45.70;20.47;;;;;;;;;;783535;179;918653;-63
2021/09/21 06:00:50;;;;;;;60.95;23.42;;;;;;;;;;773158;179;918871;-63
2021/09/21 06:03:16;;;;;;;53.03;24.00;;;;;;;;;;790290;175;1122232;-63
2021/09/21 06:05:42;;;;;;;56.00;22.67;;;;;;;;;;771914;178;918729;-61
2021/09/21 06:08:08;;;;;;;56.92;22.42;;;;;;;;;;780474;175;920131;-62
2021/09/21 06:10:35;;;;;;;64.00;22.53;;;;;;;;;;771233;179;919607;-63
2021/09/21 06:13:01;;;;;;;48.20;22.40;;;;;;;;;;787057;176;918430;-62
2021/09/21 06:15:25;;;;;;;45.10;21.90;;;;;;;;;;768456;181;628768;-63
2021/09/21 06:17:51;;;;;;;50.40;22.50;;;;;;;;;;757055;183;919390;-65
2021/09/21 06:20:17;;;;;;;40.10;21.30;;;;;;;;;;762646;182;919882;-61
2021/09/21 06:22:44;;;;;;;37.30;21.12;;;;;;;;;;763918;179;919648;-63
2021/09/21 06:25:09;;;;;;;50.27;25.47;;;;;;;;;;765394;179;919467;-62
2021/09/21 06:27:35;;;;;;;45.53;26.27;;;;;;;;;;781008;175;919552;-66
2021/09/21 06:30:01;;;;;;;45.80;21.53;;;;;;;;;;768803;182;917805;-63
2021/09/21 06:32:27;;;;;;;40.73;19.93;;;;;;;;;;767365;180;919557;-62
2021/09/21 06:34:54;;;;;;;35.80;18.30;;;;;;;;;;775681;179;919928;-63
2021/09/21 06:37:20;;;;;;;38.97;19.03;;;;;;;;;;777435;180;915530;-63
2021/09/21 06:39:46;;;;;;;33.33;18.83;;;;;;;;;;776246;180;915501;-64
2021/09/21 06:42:12;;;;;;;37.45;19.73;;;;;;;;;;764345;181;927438;-63
2021/09/21 06:44:38;;;;;;;32.42;19.83;;;;;;;;;;781687;174;918977;-62
2021/09/21 06:47:04;;;;;;;34.03;19.23;;;;;;;;;;773937;178;919609;-63
2021/09/21 06:49:30;;;;;;;33.63;18.33;;;;;;;;;;776035;178;919661;-63
2021/09/21 06:51:55;;;;;;;32.50;17.70;;;;;;;;;;778634;178;919292;-64
2021/09/21 06:54:21;;;;;;;32.30;18.47;;;;;;;;;;786383;178;919355;-63
2021/09/21 06:56:47;;;;;;;36.40;19.40;;;;;;;;;;786007;177;919673;-67
2021/09/21 06:59:13;;;;;;;32.27;18.50;;;;;;;;;;765194;182;918439;-63
2021/09/21 07:01:39;;;;;;;33.30;19.30;;;;;;;;;;782908;178;919062;-63
2021/09/21 07:04:05;;;;;;;28.33;16.73;;;;;;;;;;777414;179;919600;-64
2021/09/21 07:06:30;;;;;;;30.70;17.63;;;;;;;;;;753790;180;927236;-64
2021/09/21 07:08:56;;;;;;;35.30;17.97;;;;;;;;;;786695;178;918340;-66
2021/09/21 07:11:22;;;;;;;27.60;16.73;;;;;;;;;;782484;178;919198;-64
2021/09/21 07:13:48;;;;;;;31.83;16.70;;;;;;;;;;783028;178;918643;-65
2021/09/21 07:16:14;;;;;;;24.90;13.57;;;;;;;;;;777665;179;918960;-64
2021/09/21 07:18:40;;;;;;;23.73;12.03;;;;;;;;;;784370;178;919586;-65
2021/09/21 07:21:06;;;;;;;20.43;12.53;;;;;;;;;;789528;176;919356;-65
2021/09/21 07:23:31;;;;;;;23.50;12.85;;;;;;;;;;761118;181;919015;-66
2021/09/21 07:25:57;;;;;;;19.30;11.87;;;;;;;;;;789809;178;919558;-66
2021/09/21 07:28:23;;;;;;;20.67;11.70;;;;;;;;;;777763;178;919570;-65
2021/09/21 07:30:49;;;;;;;24.67;12.37;;;;;;;;;;781855;177;918955;-65
2021/09/21 07:33:16;;;;;;;17.83;11.40;;;;;;;;;;774721;178;935936;-65
2021/09/21 07:35:41;;;;;;;16.60;11.53;;;;;;;;;;756367;182;918341;-65
2021/09/21 07:38:06;;;;;;;21.70;12.73;;;;;;;;;;773835;180;919140;-66
2021/09/21 07:40:35;;;;;;;16.07;9.70;;;;;;;;;;793106;175;925619;-66
2021/09/21 07:42:58;;;;;;;19.95;10.35;;;;;;;;;;771153;177;919256;-66
2021/09/21 07:45:24;;;;;;;16.17;11.30;;;;;;;;;;794774;174;919450;-65
2021/09/21 07:47:51;;;;;;;15.07;11.00;;;;;;;;;;788333;175;919204;-66
2021/09/21 07:50:16;;;;;;;13.37;8.07;;;;;;;;;;800864;175;920403;-67
2021/09/21 07:52:41;;;;;;;19.87;11.60;;;;;;;;;;793762;175;918792;-66
2021/09/21 07:55:08;;;;;;;12.87;8.53;;;;;;;;;;792335;174;919291;-66
2021/09/21 07:57:34;;;;;;;14.65;9.13;;;;;;;;;;786772;174;918497;-66
2021/09/21 07:59:59;;;;;;;16.13;8.23;;;;;;;;;;774905;178;917847;-66
2021/09/21 08:02:25;;;;;;;15.40;9.13;;;;;;;;;;774693;180;918839;-67
2021/09/21 08:04:51;;;;;;;13.60;9.05;;;;;;;;;;771666;180;918397;-66
2021/09/21 08:07:17;;;;;;;13.63;9.20;;;;;;;;;;784434;175;920253;-66
2021/09/21 08:09:45;;;;;;;13.80;8.60;;;;;;;;;;777454;178;918811;-68
2021/09/21 08:12:09;;;;;;;12.10;7.37;;;;;;;;;;776180;177;919951;-66
2021/09/21 08:14:37;;;;;;;12.33;6.37;;;;;;;;;;765658;180;919123;-68
2021/09/21 08:17:04;;;;;;;9.93;6.73;;;;;;;;;;767959;180;919730;-67
2021/09/21 08:19:30;;;;;;;12.53;7.60;;;;;;;;;;774468;180;919504;-67
2021/09/21 08:21:56;;;;;;;7.33;5.23;;;;;;;;;;780313;180;919387;-67
2021/09/21 08:24:22;;;;;;;9.77;6.77;;;;;;;;;;769765;180;918313;-67
2021/09/21 08:26:48;;;;;;;10.77;6.97;;;;;;;;;;761120;182;918654;-66
2021/09/21 08:29:13;;;;;;;8.20;6.23;;;;;;;;;;763219;179;919295;-67
2021/09/21 08:31:39;;;;;;;10.17;6.30;;;;;;;;;;765566;181;918722;-66
2021/09/21 08:34:05;;;;;;;10.03;7.20;;;;;;;;;;759243;180;919175;-67
2021/09/21 08:36:31;;;;;;;8.60;6.27;;;;;;;;;;766552;180;918226;-67
2021/09/21 08:38:57;;;;;;;9.90;6.00;;;;;;;;;;768904;180;921111;-67
2021/09/21 08:41:24;;;;;;;10.90;7.77;;;;;;;;;;759928;180;920120;-67
2021/09/21 08:43:49;;;;;;;8.73;5.93;;;;;;;;;;760413;180;919471;-68
2021/09/21 08:46:14;;;;;;;10.83;5.13;;;;;;;;;;772895;180;916624;-67
2021/09/21 08:48:40;;;;;;;13.80;5.67;;;;;;;;;;773765;180;920097;-66
2021/09/21 08:51:06;;;;;;;7.20;6.00;;;;;;;;;;761649;180;1013672;-67
2021/09/21 08:53:32;;;;;;;5.25;4.00;;;;;;;;;;776007;175;914748;-66
2021/09/21 08:55:58;;;;;;;5.43;2.97;;;;;;;;;;769002;178;922620;-67
2021/09/21 08:58:24;;;;;;;5.70;4.83;;;;;;;;;;780746;175;917849;-67
2021/09/21 09:00:49;;;;;;;10.13;2.20;;;;;;;;;;774837;179;915898;-68
2021/09/21 09:03:15;;;;;;;9.50;2.40;;;;;;;;;;783718;179;920604;-66
2021/09/21 09:05:45;;;;;;;4.43;3.12;;;;;;;;;;774381;180;918262;-68
2021/09/21 09:08:11;;;;;;;4.75;2.67;;;;;;;;;;763607;180;914614;-68
2021/09/21 09:10:37;;;;;;;5.05;3.37;;;;;;;;;;770107;181;919037;-66
2021/09/21 09:13:02;;;;;;;5.30;3.00;;;;;;;;;;768505;180;915797;-66
2021/09/21 09:15:28;;;;;;;5.40;2.90;;;;;;;;;;758632;181;949156;-68
2021/09/21 09:17:54;;;;;;;4.40;2.77;;;;;;;;;;768859;180;919555;-66
2021/09/21 09:20:26;;;;;;;4.83;2.67;;;;;;;;;;783454;177;920485;-67
2021/09/21 09:22:56;;;;;;;5.33;3.07;;;;;;;;;;772103;180;925401;-68
2021/09/21 09:25:24;;;;;;;5.30;3.60;;;;;;;;;;758421;179;1117388;-67
2021/09/21 09:27:48;;;;;;;4.30;2.73;;;;;;;;;;766559;182;976947;-66
2021/09/21 09:30:13;;;;;;;3.83;2.63;;;;;;;;;;761775;184;917493;-67
2021/09/21 09:32:43;;;;;;;3.50;2.60;;;;;;;;;;758461;179;911842;-67
2021/09/21 09:35:09;;;;;;;5.28;2.62;;;;;;;;;;778856;177;916534;-67
2021/09/21 09:37:37;;;;;;;6.53;2.73;;;;;;;;;;780794;180;909777;-67
2021/09/21 09:40:03;;;;;;;6.77;3.80;;;;;;;;;;776872;180;911827;-67
2021/09/21 09:42:29;;;;;;;3.75;2.35;;;;;;;;;;779476;179;920284;-68
2021/09/21 09:44:55;;;;;;;5.18;3.58;;;;;;;;;;784311;175;911804;-67
2021/09/21 09:47:21;;;;;;;5.60;3.10;;;;;;;;;;783040;176;915338;-67
2021/09/21 09:49:47;;;;;;;4.60;3.10;;;;;;;;;;770390;177;919252;-67
2021/09/21 09:52:13;;;;;;;4.05;2.62;;;;;;;;;;775695;178;918488;-66
2021/09/21 09:54:39;;;;;;;6.73;2.87;;;;;;;;;;790188;176;920332;-67
2021/09/21 09:57:05;;;;;;;4.33;3.17;;;;;;;;;;758507;183;918757;-67
2021/09/21 09:59:31;;;;;;;4.70;2.77;;;;;;;;;;768716;175;1021504;-66
2021/09/21 10:01:56;;;;;;;6.00;3.77;;;;;;;;;;782641;177;918436;-67
2021/09/21 10:04:23;;;;;;;5.10;3.10;;;;;;;;;;770026;180;918879;-67
2021/09/21 10:06:48;;;;;;;5.30;3.03;;;;;;;;;;772237;176;918949;-68
2021/09/21 10:09:15;;;;;;;5.43;3.60;;;;;;;;;;785384;175;919374;-68
2021/09/21 10:11:40;;;;;;;4.33;2.97;;;;;;;;;;769752;180;919495;-68
2021/09/21 10:14:06;;;;;;;5.90;3.65;;;;;;;;;;762685;182;919094;-68
2021/09/21 10:16:31;;;;;;;4.13;3.00;;;;;;;;;;775394;177;918729;-68
2021/09/21 10:18:57;;;;;;;8.13;3.40;;;;;;;;;;786524;178;918687;-68
2021/09/21 10:21:29;;;;;;;4.67;3.20;;;;;;;;;;782369;178;918831;-68
2021/09/21 10:23:56;;;;;;;4.67;3.47;;;;;;;;;;782286;178;919231;-68
2021/09/21 10:26:23;;;;;;;5.33;3.20;;;;;;;;;;785264;178;918728;-69
2021/09/21 10:28:47;;;;;;;4.97;2.63;;;;;;;;;;764609;179;919586;-69
2021/09/21 10:31:13;;;;;;;4.72;3.12;;;;;;;;;;772434;178;918124;-68
2021/09/21 10:33:39;;;;;;;4.83;3.30;;;;;;;;;;778052;177;918994;-69
2021/09/21 10:36:05;;;;;;;6.43;2.90;;;;;;;;;;786392;177;918211;-69
2021/09/21 10:38:31;;;;;;;4.33;2.87;;;;;;;;;;772552;180;918584;-68
2021/09/21 10:41:03;;;;;;;5.00;3.30;;;;;;;;;;784943;177;919042;-68
2021/09/21 10:43:29;;;;;;;6.20;4.60;;;;;;;;;;768003;180;922958;-70
2021/09/21 10:46:01;;;;;;;10.37;6.13;;;;;;;;;;771660;179;919221;-71
2021/09/21 10:48:27;;;;;;;12.03;6.67;;;;;;;;;;777291;178;923552;-69
2021/09/21 10:50:55;;;;;;;8.37;5.60;;;;;;;;;;773920;180;919028;-70
2021/09/21 10:53:20;;;;;;;10.10;6.03;;;;;;;;;;785631;179;608678;-70
2021/09/21 10:55:46;;;;;;;6.60;4.63;;;;;;;;;;786549;176;617770;-70
2021/09/21 10:58:17;;;;;;;9.30;6.00;;;;;;;;;;788095;175;919427;-70
2021/09/21 11:00:42;;;;;;;6.53;5.07;;;;;;;;;;766356;178;917976;-70
2021/09/21 11:03:08;;;;;;;8.55;6.07;;;;;;;;;;769494;180;934995;-70
2021/09/21 11:05:34;;;;;;;8.33;5.90;;;;;;;;;;785239;176;919553;-70
2021/09/21 11:08:00;;;;;;;6.87;4.57;;;;;;;;;;770493;180;919222;-70
2021/09/21 11:10:27;;;;;;;7.07;4.70;;;;;;;;;;765016;183;917883;-70
2021/09/21 11:12:52;;;;;;;8.13;5.00;;;;;;;;;;761693;180;918454;-70
2021/09/21 11:15:17;;;;;;;6.80;4.10;;;;;;;;;;768742;181;907456;-71
2021/09/21 11:17:43;;;;;;;5.53;3.80;;;;;;;;;;787004;177;919096;-70
2021/09/21 11:20:09;;;;;;;6.57;4.37;;;;;;;;;;778430;177;919449;-70
2021/09/21 11:22:37;;;;;;;5.97;4.27;;;;;;;;;;772206;180;920021;-70
2021/09/21 11:25:05;;;;;;;6.07;3.67;;;;;;;;;;769778;180;927720;-71
2021/09/21 11:27:31;;;;;;;8.77;3.63;;;;;;;;;;785457;178;919772;-70
2021/09/21 11:29:58;;;;;;;6.87;3.70;;;;;;;;;;771755;178;918954;-71
2021/09/21 11:32:24;;;;;;;7.00;3.83;;;;;;;;;;780516;178;944726;-71
2021/09/21 11:34:57;;;;;;;5.10;3.40;;;;;;;;;;787592;178;918871;-70
2021/09/21 11:37:22;;;;;;;5.15;3.90;;;;;;;;;;765400;178;919710;-71
2021/09/21 11:39:47;;;;;;;6.77;4.00;;;;;;;;;;775984;179;934250;-70
2021/09/21 11:42:13;;;;;;;7.00;4.27;;;;;;;;;;779292;178;918256;-71
2021/09/21 11:44:39;;;;;;;8.97;3.87;;;;;;;;;;783167;178;917696;-71
2021/09/21 11:47:05;;;;;;;6.47;4.40;;;;;;;;;;774956;178;920317;-71
2021/09/21 11:49:31;;;;;;;5.77;4.17;;;;;;;;;;775017;179;920306;-70
2021/09/21 11:51:57;;;;;;;7.03;4.30;;;;;;;;;;782164;178;919919;-70
2021/09/21 11:54:23;;;;;;;5.63;4.20;;;;;;;;;;779267;175;917932;-71
2021/09/21 11:56:48;;;;;;;4.73;3.60;;;;;;;;;;781083;178;943425;-71
2021/09/21 11:59:14;;;;;;;5.57;3.67;;;;;;;;;;778840;178;919798;-70
2021/09/21 12:01:40;;;;;;;4.10;2.90;;;;;;;;;;766167;182;932706;-71
2021/09/21 12:04:06;;;;;;;6.93;3.10;;;;;;;;;;778739;178;919571;-72
2021/09/21 12:06:32;;;;;;;5.10;3.37;;;;;;;;;;782492;178;919507;-70
2021/09/21 12:09:00;;;;;;;5.23;3.60;;;;;;;;;;784591;178;918743;-71
2021/09/21 12:11:24;;;;;;;6.00;2.97;;;;;;;;;;751588;183;918722;-71
2021/09/21 12:13:49;;;;;;;4.72;2.67;;;;;;;;;;764324;180;918142;-70
2021/09/21 12:16:15;;;;;;;3.37;2.40;;;;;;;;;;771394;179;919530;-70
2021/09/21 12:18:41;;;;;;;3.43;2.30;;;;;;;;;;776215;178;917385;-71
2021/09/21 12:21:07;;;;;;;3.37;2.10;;;;;;;;;;768206;181;944162;-71
2021/09/21 12:23:33;;;;;;;2.70;1.90;;;;;;;;;;786806;178;921771;-71
2021/09/21 12:25:58;;;;;;;3.87;2.30;;;;;;;;;;771315;179;915874;-71
2021/09/21 12:28:24;;;;;;;3.63;2.30;;;;;;;;;;795658;174;920415;-71
2021/09/21 12:30:50;;;;;;;4.10;2.50;;;;;;;;;;786000;174;927757;-72
2021/09/21 12:33:16;;;;;;;3.70;2.70;;;;;;;;;;781695;178;917636;-72
2021/09/21 12:35:43;;;;;;;7.40;2.50;;;;;;;;;;775416;178;1123424;-72
2021/09/21 12:38:08;;;;;;;8.80;2.83;;;;;;;;;;780836;175;919464;-72
2021/09/21 12:40:34;;;;;;;4.77;2.80;;;;;;;;;;783866;178;913039;-73
2021/09/21 12:43:01;;;;;;;4.17;2.77;;;;;;;;;;778865;178;918632;-72
2021/09/21 12:45:27;;;;;;;4.93;2.90;;;;;;;;;;778964;178;915859;-73
2021/09/21 12:47:53;;;;;;;6.23;3.80;;;;;;;;;;781916;179;919103;-72
2021/09/21 12:50:18;;;;;;;4.30;3.23;;;;;;;;;;749301;186;919585;-74
2021/09/21 12:52:49;;;;;;;4.33;3.20;;;;;;;;;;784027;178;919279;-74
2021/09/21 12:55:15;;;;;;;8.17;3.10;;;;;;;;;;779865;178;921578;-74
2021/09/21 12:57:41;;;;;;;5.60;3.30;;;;;;;;;;782474;178;919523;-73
2021/09/21 13:00:07;;;;;;;4.73;2.80;;;;;;;;;;772916;178;920241;-73
2021/09/21 13:02:33;;;;;;;4.70;2.60;;;;;;;;;;784748;175;917606;-73
2021/09/21 13:05:00;;;;;;;5.13;3.17;;;;;;;;;;785776;178;922825;-73
2021/09/21 13:07:25;;;;;;;4.63;3.13;;;;;;;;;;770802;179;919134;-72
2021/09/21 13:09:51;;;;;;;4.17;2.70;;;;;;;;;;756477;180;916552;-72
2021/09/21 13:12:17;;;;;;;4.53;2.90;;;;;;;;;;762362;182;916860;-71
2021/09/21 13:14:42;;;;;;;4.27;2.80;;;;;;;;;;766624;184;915461;-73
2021/09/21 13:17:10;;;;;;;5.00;3.20;;;;;;;;;;770990;179;916112;-72
2021/09/21 13:19:36;;;;;;;3.53;2.67;;;;;;;;;;776600;174;915579;-71
2021/09/21 13:22:01;;;;;;;5.00;2.70;;;;;;;;;;775786;177;2041597;-72
2021/09/21 13:24:27;;;;;;;3.97;2.90;;;;;;;;;;780571;178;915811;-75
2021/09/21 13:26:53;;;;;;;3.47;2.60;;;;;;;;;;782643;177;915619;-73
2021/09/21 13:29:19;;;;;;;4.83;2.80;;;;;;;;;;777765;179;918766;-74
2021/09/21 13:31:45;;;;;;;4.00;2.40;;;;;;;;;;773995;174;918313;-74
2021/09/21 13:34:11;;;;;;;4.40;3.23;;;;;;;;;;773607;178;918503;-72
2021/09/21 13:36:36;;;;;;;3.53;2.77;;;;;;;;;;777009;175;919669;-73
2021/09/21 13:39:02;;;;;;;8.17;3.20;;;;;;;;;;764480;181;914804;-74
2021/09/21 13:41:29;;;;;;;5.33;2.73;;;;;;;;;;768819;180;918440;-73
2021/09/21 13:43:54;;;;;;;4.87;3.40;;;;;;;;;;765802;180;917881;-75
2021/09/21 13:46:20;;;;;;;5.50;3.03;;;;;;;;;;785857;178;913168;-75
2021/09/21 13:48:46;;;;;;;6.28;3.10;;;;;;;;;;771907;179;919018;-73
2021/09/21 13:51:11;;;;;;;4.50;3.07;;;;;;;;;;779042;178;1020730;-72
2021/09/21 13:53:37;;;;;;;5.78;3.30;;;;;;;;;;778808;178;919309;-73
2021/09/21 13:56:03;;;;;;;5.70;3.63;;;;;;;;;;781294;175;917152;-72
2021/09/21 13:58:29;;;;;;;4.90;3.57;;;;;;;;;;779476;178;918557;-73
2021/09/21 14:00:55;;;;;;;5.03;3.33;;;;;;;;;;782167;178;918738;-73
2021/09/21 14:03:21;;;;;;;5.13;3.00;;;;;;;;;;765691;180;919161;-73
2021/09/21 14:05:47;;;;;;;4.30;3.47;;;;;;;;;;786768;175;918812;-73
2021/09/21 14:08:13;;;;;;;5.40;4.17;;;;;;;;;;776961;176;918083;-73
2021/09/21 14:10:38;;;;;;;4.40;3.80;;;;;;;;;;777320;180;919357;-74
2021/09/21 14:13:04;;;;;;;6.47;3.47;;;;;;;;;;777945;180;630819;-72
2021/09/21 14:15:30;;;;;;;7.93;3.33;;;;;;;;;;771812;180;919078;-74
2021/09/21 14:17:56;;;;;;;6.20;2.80;;;;;;;;;;767926;179;918447;-72
2021/09/21 14:20:23;;;;;;;6.32;3.60;;;;;;;;;;769050;180;919164;-73
2021/09/21 14:22:48;;;;;;;7.77;3.73;;;;;;;;;;778520;174;1021404;-72